Lemmer, Netherlands
Current Conditions -  °F | °C
As of 4:46 AM on Monday 24 Nov 2014 (Local Time) from EHLW Reporting Station
Moderate Rain Moderate Rain  
Wind Chill:   Ceiling: 2500
Heat Index:   Visibility: 6mi
Dew Point:   Wind: 8mph
Humidity: 93%   Direction: 300°WNW
Pressure: 30.06"   Gusts: NA
Location:  52.85°N, 5.71°E
Report Text: EHLW 240346Z AUTO 30007KT 9999 DZRA FEW018 BKN025 OVC030 08/07 Q1018 RERA REDZ BLU
Loading
Personal Weather Stations






























Interactive Weather Map New forecast layout! Learn more

10-Day Weather Forecast

Advertisements
Track Severe Weather on mobile